Time;durP1;ratioP1;P1;durP2;ratioP2;P2;SDS_P1;SDS_P2;PMS_P1;PMS_P2;Temp;Humidity;BMP_temperature;BMP_pressure;BME280_temperature;BME280_humidity;BME280_pressure;Samples;Min_cycle;Max_cycle;Signal;HPM_P1;HPM_P2
2023/08/24 00:04:16;;;;;;;5.32;2.78;;;;;;;26.26;48.54;99637.50;5015253;28;20480;-94
2023/08/24 00:06:41;;;;;;;4.82;3.22;;;;;;;25.68;48.65;99561.13;4995066;28;20025;-94
2023/08/24 00:12:35;;;;;;;4.25;3.35;;;;;;;25.81;48.51;99578.06;5012010;28;20048;-94
2023/08/24 00:22:52;;;;;;;6.30;2.88;;;;;;;25.98;48.52;99635.31;5014472;28;20042;-92
2023/08/24 00:36:05;;;;;;;5.93;2.97;;;;;;;25.90;48.67;99631.34;5015583;28;20506;-94
2023/08/24 00:45:30;;;;;;;5.05;2.72;;;;;;;25.29;49.40;99584.91;5034932;28;20040;-93
2023/08/24 00:48:19;;;;;;;4.60;3.05;;;;;;;25.67;49.48;99635.00;5017057;28;20523;-92
2023/08/24 01:04:36;;;;;;;4.97;3.15;;;;;;;24.96;50.76;99559.50;5034304;28;20049;-95
2023/08/24 01:34:19;;;;;;;3.40;2.63;;;;;;;24.85;50.72;99573.81;4897656;29;20067;-94
2023/08/24 01:37:40;;;;;;;5.38;2.95;;;;;;;25.36;50.16;99629.31;4878312;29;20045;-93
2023/08/24 01:40:45;;;;;;;3.03;2.10;;;;;;;24.96;49.60;99592.75;4861450;29;20040;-92
2023/08/24 01:53:20;;;;;;;5.35;3.28;;;;;;;24.12;50.57;99533.38;4862826;29;20127;-94
2023/08/24 02:06:17;;;;;;;4.97;2.75;;;;;;;24.31;51.37;99564.34;4870529;29;20060;-94
2023/08/24 02:12:22;;;;;;;5.78;2.92;;;;;;;24.47;51.99;99575.72;4902992;29;20064;-95
2023/08/24 02:22:33;;;;;;;4.03;1.98;;;;;;;24.73;51.40;99607.13;4899767;29;20028;-95
2023/08/24 02:35:50;;;;;;;3.90;2.30;;;;;;;24.61;52.54;99609.75;4895440;29;20574;-93
2023/08/24 02:39:05;;;;;;;4.53;2.63;;;;;;;24.61;52.37;99615.16;4914230;28;20033;-93
2023/08/24 02:42:12;;;;;;;6.15;3.95;;;;;;;24.53;52.70;99606.75;4989820;28;20097;-93
2023/08/24 02:45:04;;;;;;;5.97;3.47;;;;;;;24.45;53.29;99601.94;4997634;28;20057;-92
2023/08/24 02:57:38;;;;;;;5.07;2.63;;;;;;;24.11;53.33;99550.53;5013215;28;20048;-91
2023/08/24 03:00:07;;;;;;;6.93;3.83;;;;;;;24.11;53.73;99574.78;4994616;28;20392;-92
2023/08/24 03:02:32;;;;;;;4.20;3.05;;;;;;;24.23;53.87;99577.53;5012266;28;20038;-91
2023/08/24 03:04:58;;;;;;;4.28;2.20;;;;;;;23.98;54.03;99546.16;5018707;28;20032;-91
2023/08/24 03:07:26;;;;;;;4.70;2.63;;;;;;;23.95;53.90;99539.16;5031911;28;20033;-94
2023/08/24 03:10:05;;;;;;;5.97;2.70;;;;;;;24.53;53.94;99616.66;5013392;28;20500;-94
2023/08/24 03:12:31;;;;;;;6.97;3.08;;;;;;;24.03;54.11;99544.81;5032279;28;20040;-93
2023/08/24 03:15:02;;;;;;;3.55;2.47;;;;;;;24.52;54.03;99617.66;5000649;28;20021;-94
2023/08/24 03:18:18;;;;;;;4.78;3.08;;;;;;;24.52;53.45;99612.25;5021091;28;20033;-96
2023/08/24 03:20:48;;;;;;;7.95;3.35;;;;;;;23.81;53.59;99533.88;5032229;28;20107;-93
2023/08/24 03:23:14;;;;;;;7.28;3.67;;;;;;;24.19;53.74;99589.50;5029603;28;20436;-88
2023/08/24 03:25:41;;;;;;;7.50;4.40;;;;;;;24.17;53.58;99581.53;5030570;28;20026;-92
2023/08/24 03:28:09;;;;;;;4.47;3.30;;;;;;;23.99;53.37;99559.50;5030049;28;20026;-93
2023/08/24 03:30:39;;;;;;;6.38;3.13;;;;;;;23.92;53.08;99547.47;5029752;28;20034;-93
2023/08/24 03:33:05;;;;;;;3.58;2.38;;;;;;;24.08;52.72;99584.91;5031991;28;20051;-93
2023/08/24 03:35:31;;;;;;;3.20;2.42;;;;;;;23.92;52.41;99552.84;4986485;28;20038;-93
2023/08/24 03:38:00;;;;;;;7.60;3.85;;;;;;;24.03;52.40;99565.53;5014059;28;20045;-96
2023/08/24 03:40:26;;;;;;;4.18;3.03;;;;;;;24.06;52.04;99558.06;5029502;28;20053;-91
2023/08/24 03:42:53;;;;;;;4.97;3.22;;;;;;;23.88;52.00;99578.25;5010237;28;20072;-92
2023/08/24 03:45:21;;;;;;;2.90;2.22;;;;;;;23.88;51.86;99587.22;5030442;28;20049;-94
2023/08/24 03:47:47;;;;;;;2.90;1.58;;;;;;;24.17;51.80;99618.41;5025606;28;20042;-93
2023/08/24 03:50:12;;;;;;;4.60;2.75;;;;;;;23.98;52.12;99581.19;5029038;28;20381;-90
2023/08/24 03:52:39;;;;;;;6.25;3.20;;;;;;;24.07;51.49;99589.44;5011924;28;20061;-95
2023/08/24 03:55:06;;;;;;;3.67;2.67;;;;;;;24.54;51.48;99658.84;5032737;28;20037;-92
2023/08/24 03:57:31;;;;;;;3.10;2.38;;;;;;;24.32;51.44;99619.97;5007038;28;20052;-90
2023/08/24 03:59:59;;;;;;;5.97;3.33;;;;;;;24.38;51.23;99616.84;5032310;28;20032;-94
2023/08/24 04:02:25;;;;;;;4.50;2.67;;;;;;;24.46;50.73;99619.81;5014707;28;20059;-93
2023/08/24 04:04:51;;;;;;;3.90;2.60;;;;;;;24.43;50.63;99573.38;5034171;28;20563;-91
2023/08/24 04:07:16;;;;;;;3.65;1.92;;;;;;;24.50;51.30;99585.41;5014974;28;20033;-91
2023/08/24 04:09:42;;;;;;;10.60;3.85;;;;;;;24.71;51.36;99615.31;5033539;28;20110;-91
2023/08/24 04:12:08;;;;;;;6.47;2.97;;;;;;;24.86;51.25;99629.50;5015495;28;20388;-91
2023/08/24 04:14:33;;;;;;;4.10;2.80;;;;;;;25.01;51.05;99644.50;5032442;28;20124;-92
2023/08/24 04:16:59;;;;;;;3.47;2.85;;;;;;;25.06;51.25;99641.47;5013982;28;20418;-92
2023/08/24 04:19:24;;;;;;;2.80;2.35;;;;;;;25.27;50.91;99662.38;5014797;28;20034;-89
2023/08/24 04:21:50;;;;;;;4.22;2.28;;;;;;;24.94;51.17;99601.94;5032391;28;20072;-89
2023/08/24 04:24:15;;;;;;;8.65;3.95;;;;;;;25.16;51.39;99641.63;5013386;28;20128;-89
2023/08/24 04:26:41;;;;;;;4.40;2.53;;;;;;;25.26;50.43;99656.13;5012717;28;20074;-89
2023/08/24 04:29:06;;;;;;;5.63;2.70;;;;;;;25.28;50.68;99664.97;5032845;28;20094;-89
2023/08/24 04:31:31;;;;;;;6.25;4.20;;;;;;;25.31;50.58;99647.72;5032866;28;20520;-89
2023/08/24 04:33:57;;;;;;;6.38;4.18;;;;;;;25.31;50.32;99637.78;5032512;28;20026;-89
2023/08/24 04:36:22;;;;;;;7.53;4.03;;;;;;;25.40;50.89;99665.06;5031096;28;20527;-89
2023/08/24 04:38:48;;;;;;;3.78;2.10;;;;;;;25.14;50.93;99619.28;5032660;28;20052;-88
2023/08/24 04:41:13;;;;;;;5.63;3.15;;;;;;;25.46;51.04;99669.97;5031884;28;20033;-90
2023/08/24 04:43:39;;;;;;;5.97;2.40;;;;;;;25.31;50.92;99631.53;5014881;28;20519;-89
2023/08/24 04:46:04;;;;;;;10.98;2.78;;;;;;;25.33;51.81;99645.75;5032096;28;20033;-89
2023/08/24 04:48:34;;;;;;;3.90;2.58;;;;;;;25.63;51.60;99671.38;5032470;28;20030;-89
2023/08/24 04:51:02;;;;;;;6.20;2.15;;;;;;;25.44;50.96;99635.00;5032211;28;20451;-89
2023/08/24 04:53:28;;;;;;;3.38;1.95;;;;;;;25.72;50.54;99654.44;5032147;28;20061;-92
2023/08/24 04:55:53;;;;;;;4.30;2.22;;;;;;;25.79;50.32;99673.72;5031647;28;20487;-89
2023/08/24 04:58:19;;;;;;;4.28;2.63;;;;;;;25.59;49.51;99632.91;5032489;28;20036;-89
2023/08/24 05:00:45;;;;;;;4.38;2.97;;;;;;;25.63;49.87;99668.66;5032242;28;20073;-91
2023/08/24 05:03:11;;;;;;;6.78;3.35;;;;;;;25.51;50.09;99646.16;5031050;28;20405;-90
2023/08/24 05:05:37;;;;;;;5.20;3.05;;;;;;;25.81;49.86;99671.72;5031844;28;20044;-92
2023/08/24 05:08:06;;;;;;;6.95;3.15;;;;;;;25.82;49.14;99677.00;5030217;28;20037;-91
2023/08/24 05:10:33;;;;;;;3.97;2.83;;;;;;;25.55;48.64;99645.81;5031881;28;20037;-91
2023/08/24 05:12:59;;;;;;;10.25;3.95;;;;;;;25.91;48.39;99678.13;5032559;28;20056;-92
2023/08/24 05:15:25;;;;;;;4.85;3.53;;;;;;;25.85;48.54;99657.88;5013958;28;20029;-92
2023/08/24 05:17:54;;;;;;;5.72;2.95;;;;;;;26.07;48.25;99689.50;5031083;28;20082;-90
2023/08/24 05:20:20;;;;;;;6.40;3.85;;;;;;;26.18;48.38;99674.25;5029942;28;20030;-91
2023/08/24 05:22:46;;;;;;;4.07;3.03;;;;;;;26.51;47.39;99669.75;4994299;28;20033;-90
2023/08/24 05:25:11;;;;;;;4.50;2.40;;;;;;;26.71;46.91;99666.31;5016264;28;20030;-90
2023/08/24 05:27:37;;;;;;;6.03;3.05;;;;;;;26.79;46.31;99649.47;5031559;28;20083;-91
2023/08/24 05:30:04;;;;;;;6.15;2.63;;;;;;;27.05;46.33;99677.03;5013514;28;20448;-93
2023/08/24 05:32:29;;;;;;;6.38;3.97;;;;;;;26.95;46.13;99628.22;5020582;28;20033;-92
2023/08/24 05:34:55;;;;;;;5.40;3.20;;;;;;;27.17;46.26;99667.00;5040025;28;20051;-92
2023/08/24 05:37:20;;;;;;;6.22;3.60;;;;;;;27.23;46.18;99650.22;5037449;28;20036;-93
2023/08/24 05:39:45;;;;;;;5.07;2.78;;;;;;;27.28;45.94;99677.78;5018090;28;20067;-92
2023/08/24 05:42:11;;;;;;;5.53;3.22;;;;;;;27.31;45.67;99645.06;5010394;28;20045;-93
2023/08/24 05:44:36;;;;;;;5.28;2.63;;;;;;;27.60;44.64;99654.38;5012460;28;20080;-93
2023/08/24 05:47:02;;;;;;;4.82;3.50;;;;;;;27.70;44.26;99676.97;5025073;28;20037;-91
2023/08/24 05:49:28;;;;;;;4.50;1.85;;;;;;;27.19;44.18;99631.66;5030454;28;20029;-92
2023/08/24 05:51:53;;;;;;;2.75;2.05;;;;;;;27.52;43.76;99646.91;5013970;28;20040;-91
2023/08/24 05:54:19;;;;;;;4.13;2.92;;;;;;;27.44;43.43;99666.53;5024646;28;20056;-93
2023/08/24 05:56:45;;;;;;;6.47;3.22;;;;;;;27.25;43.94;99652.81;5032666;28;20120;-93
2023/08/24 05:59:11;;;;;;;5.72;3.03;;;;;;;26.96;44.29;99640.78;5013060;28;20033;-91
2023/08/24 06:01:39;;;;;;;5.60;2.40;;;;;;;27.31;44.55;99652.28;5012857;28;20053;-91
2023/08/24 06:04:05;;;;;;;3.85;3.00;;;;;;;27.75;44.49;99674.72;5030896;28;20027;-95
2023/08/24 06:06:31;;;;;;;3.63;2.58;;;;;;;27.86;43.32;99654.78;5015379;28;20037;-94
2023/08/24 06:08:57;;;;;;;5.15;2.53;;;;;;;27.84;43.32;99640.53;4997070;28;20034;-92
2023/08/24 06:11:23;;;;;;;4.05;2.47;;;;;;;28.11;42.74;99668.91;5023835;28;20041;-96
2023/08/24 06:13:49;;;;;;;3.75;2.45;;;;;;;28.36;43.64;99678.41;5006830;28;20318;-93
2023/08/24 06:16:14;;;;;;;5.60;3.17;;;;;;;28.54;42.75;99675.91;5004887;28;20038;-95
2023/08/24 06:18:40;;;;;;;10.85;3.25;;;;;;;28.28;43.04;99638.44;5019768;28;20025;-94
2023/08/24 06:21:05;;;;;;;6.35;2.83;;;;;;;28.53;42.85;99652.47;5006576;28;20388;-94
2023/08/24 06:23:31;;;;;;;8.85;2.55;;;;;;;28.77;43.45;99656.72;5020525;28;20472;-96
2023/08/24 06:25:56;;;;;;;17.55;3.42;;;;;;;28.73;43.61;99627.16;5012407;28;20037;-95
2023/08/24 06:28:23;;;;;;;3.72;2.63;;;;;;;28.81;43.40;99629.16;5014220;28;20565;-94
2023/08/24 06:30:48;;;;;;;5.07;4.00;;;;;;;29.14;43.80;99646.00;5012840;28;20113;-93
2023/08/24 06:33:16;;;;;;;5.30;2.88;;;;;;;29.45;42.20;99679.31;5001055;28;20131;-90
2023/08/24 06:35:42;;;;;;;4.65;3.38;;;;;;;29.34;42.44;99660.47;5021312;28;20072;-92
2023/08/24 06:38:07;;;;;;;5.10;2.35;;;;;;;29.29;41.77;99654.63;5012402;28;20520;-90
2023/08/24 06:40:33;;;;;;;3.47;2.70;;;;;;;29.52;40.56;99693.19;5011179;28;20523;-93
2023/08/24 06:42:58;;;;;;;8.15;2.67;;;;;;;29.48;41.24;99693.63;5028448;28;20434;-94
2023/08/24 06:45:24;;;;;;;5.85;3.25;;;;;;;29.68;40.87;99681.72;5013876;28;20037;-93
2023/08/24 06:47:51;;;;;;;5.60;3.00;;;;;;;29.86;41.22;99681.84;5006514;28;20412;-91
2023/08/24 06:50:16;;;;;;;16.63;3.65;;;;;;;29.84;45.80;99681.13;5012091;28;20182;-94
2023/08/24 06:52:42;;;;;;;5.20;2.70;;;;;;;29.25;52.34;99661.31;5018788;28;20041;-88
2023/08/24 06:55:11;;;;;;;16.00;2.83;;;;;;;28.90;54.27;99635.56;5027839;28;20029;-90
2023/08/24 06:57:37;;;;;;;10.18;3.38;;;;;;;28.59;54.86;99662.81;5027578;28;20045;-90
2023/08/24 07:00:07;;;;;;;5.65;2.67;;;;;;;28.41;54.52;99665.31;5029674;28;20112;-90
2023/08/24 07:02:33;;;;;;;6.38;3.03;;;;;;;28.54;57.08;99673.19;5029112;28;20530;-90
2023/08/24 07:04:59;;;;;;;17.63;2.97;;;;;;;28.44;55.42;99684.03;5011551;28;20037;-91
2023/08/24 07:07:25;;;;;;;5.28;3.33;;;;;;;28.45;52.10;99672.16;5028971;28;20415;-91
2023/08/24 07:09:50;;;;;;;11.73;3.88;;;;;;;28.60;55.15;99702.53;5029307;28;20167;-91
2023/08/24 07:12:16;;;;;;;3.67;2.40;;;;;;;28.20;52.91;99700.63;5030063;28;20108;-90
2023/08/24 07:14:41;;;;;;;4.45;2.97;;;;;;;28.05;53.75;99673.03;5030258;28;20045;-93
2023/08/24 07:17:07;;;;;;;9.10;3.15;;;;;;;28.21;53.01;99686.09;5013967;28;20040;-90
2023/08/24 07:19:32;;;;;;;2.42;1.92;;;;;;;28.28;52.42;99706.22;5012327;28;20053;-90
2023/08/24 07:21:58;;;;;;;5.95;2.97;;;;;;;28.64;54.47;99712.09;5012254;28;20407;-90
2023/08/24 07:24:26;;;;;;;6.97;4.38;;;;;;;28.30;50.91;99671.72;5030786;28;20037;-91
2023/08/24 07:26:54;;;;;;;4.93;3.15;;;;;;;29.09;51.56;99670.88;5030107;28;20034;-90
2023/08/24 07:29:21;;;;;;;5.55;3.20;;;;;;;29.57;49.16;99701.75;5029764;28;20033;-91
2023/08/24 07:31:46;;;;;;;4.18;2.88;;;;;;;29.51;51.54;99699.63;5033733;28;20056;-89
2023/08/24 07:34:12;;;;;;;3.97;2.53;;;;;;;29.27;50.11;99659.31;5033801;28;20407;-89
2023/08/24 07:36:37;;;;;;;4.75;2.88;;;;;;;29.36;49.54;99671.19;5033500;28;20026;-89
2023/08/24 07:39:03;;;;;;;8.52;4.22;;;;;;;29.71;50.64;99707.75;5032850;28;20468;-89
2023/08/24 07:41:28;;;;;;;7.97;3.90;;;;;;;29.87;48.52;99699.84;5033912;28;20033;-90
2023/08/24 07:43:54;;;;;;;4.53;2.80;;;;;;;29.89;49.14;99681.56;5034084;28;20081;-88
2023/08/24 07:46:19;;;;;;;5.47;3.97;;;;;;;30.36;48.97;99699.69;5033239;28;20045;-90
2023/08/24 07:48:45;;;;;;;6.05;3.28;;;;;;;30.90;46.78;99710.72;5033354;28;20037;-89
2023/08/24 07:51:11;;;;;;;6.55;3.80;;;;;;;30.23;46.05;99666.50;5032062;28;20065;-89
2023/08/24 07:53:36;;;;;;;4.00;2.70;;;;;;;30.46;47.05;99686.91;5033573;28;20033;-89
2023/08/24 07:56:02;;;;;;;3.97;2.55;;;;;;;30.49;47.77;99680.31;5033292;28;20029;-90
2023/08/24 07:58:27;;;;;;;4.40;3.30;;;;;;;31.15;47.02;99708.28;5032660;28;20044;-90
2023/08/24 08:00:53;;;;;;;3.03;1.70;;;;;;;30.65;45.92;99669.59;5033100;28;20037;-90
2023/08/24 08:03:20;;;;;;;4.10;2.45;;;;;;;30.89;45.94;99665.41;5033011;28;20048;-92
2023/08/24 08:05:46;;;;;;;4.45;2.85;;;;;;;31.72;45.57;99665.16;5033516;28;20029;-91
2023/08/24 08:08:13;;;;;;;9.80;2.17;;;;;;;31.78;42.80;99660.94;5013694;28;20128;-91
2023/08/24 08:10:39;;;;;;;2.70;1.65;;;;;;;31.48;41.81;99641.28;5033111;28;20032;-90
2023/08/24 08:13:04;;;;;;;4.28;2.65;;;;;;;31.89;41.68;99673.44;5033039;28;20026;-90
2023/08/24 08:15:30;;;;;;;3.22;2.05;;;;;;;32.39;42.37;99658.19;5033211;28;20128;-89
2023/08/24 08:17:55;;;;;;;4.60;2.35;;;;;;;33.07;40.05;99689.94;5014237;28;20025;-90
2023/08/24 08:20:21;;;;;;;4.47;2.17;;;;;;;32.78;38.61;99653.03;5033530;28;20162;-90
2023/08/24 08:22:46;;;;;;;2.75;1.50;;;;;;;32.88;37.58;99654.75;5033061;28;20034;-89
2023/08/24 08:25:12;;;;;;;3.30;1.92;;;;;;;32.96;38.21;99665.69;5015706;28;20119;-93
2023/08/24 08:27:38;;;;;;;3.42;1.88;;;;;;;32.96;36.30;99650.13;5016425;28;20403;-93
2023/08/24 08:30:05;;;;;;;3.20;1.38;;;;;;;33.18;35.77;99655.97;5008547;28;20025;-95
2023/08/24 08:32:31;;;;;;;2.58;1.63;;;;;;;33.37;36.97;99638.41;5029028;28;20032;-92
2023/08/24 08:35:00;;;;;;;4.13;2.13;;;;;;;33.32;34.98;99644.41;5012411;28;20037;-93
2023/08/24 08:37:26;;;;;;;4.45;2.25;;;;;;;33.42;35.11;99657.03;4997552;28;20484;-95
2023/08/24 08:39:51;;;;;;;4.57;2.45;;;;;;;33.84;34.15;99643.13;5014532;28;20034;-92
2023/08/24 08:42:17;;;;;;;2.28;1.30;;;;;;;33.50;33.31;99616.84;5012054;28;20099;-92
2023/08/24 08:44:45;;;;;;;3.72;2.13;;;;;;;33.96;35.54;99635.41;5032455;28;20034;-92
2023/08/24 08:47:11;;;;;;;2.50;1.38;;;;;;;33.98;33.60;99619.66;5032229;28;20068;-92
2023/08/24 08:49:39;;;;;;;2.85;1.83;;;;;;;33.96;33.65;99640.88;5013703;28;20124;-91
2023/08/24 08:52:05;;;;;;;6.75;1.48;;;;;;;33.46;34.34;99620.97;5014665;28;20079;-92
2023/08/24 08:54:32;;;;;;;1.80;1.40;;;;;;;33.87;33.70;99659.19;5031527;28;20216;-90
2023/08/24 08:56:59;;;;;;;5.20;2.00;;;;;;;33.47;34.42;99630.03;5031269;28;20039;-91
2023/08/24 08:59:29;;;;;;;2.78;1.67;;;;;;;33.84;34.76;99609.47;5012349;28;20037;-92
2023/08/24 09:02:00;;;;;;;3.53;2.20;;;;;;;34.02;34.13;99651.13;5031810;28;20095;-93
2023/08/24 09:04:27;;;;;;;2.00;1.33;;;;;;;33.44;35.14;99623.00;5014319;28;20033;-90
2023/08/24 09:06:53;;;;;;;2.25;1.73;;;;;;;33.94;35.14;99628.41;5031067;28;20026;-90
2023/08/24 09:09:20;;;;;;;2.47;1.67;;;;;;;34.04;35.44;99640.84;5013133;28;20040;-91
2023/08/24 09:11:47;;;;;;;3.00;2.00;;;;;;;34.43;35.73;99644.63;5030926;28;20088;-93
2023/08/24 09:14:13;;;;;;;5.72;2.50;;;;;;;34.28;36.74;99633.63;5016098;28;20040;-94
2023/08/24 09:16:39;;;;;;;3.95;2.60;;;;;;;34.23;36.54;99642.31;5015723;28;20044;-93
2023/08/24 09:19:06;;;;;;;6.25;2.80;;;;;;;34.13;36.38;99624.41;5014376;28;20565;-95
2023/08/24 09:21:37;;;;;;;3.03;1.70;;;;;;;34.15;34.27;99609.50;5013703;28;20116;-92
2023/08/24 09:24:12;;;;;;;2.75;1.80;;;;;;;34.26;33.60;99624.72;5023563;28;20025;-94
2023/08/24 09:26:42;;;;;;;2.75;2.22;;;;;;;34.20;33.05;99631.72;5042033;28;20040;-95
2023/08/24 09:29:22;;;;;;;2.58;1.80;;;;;;;33.97;33.47;99642.59;5007154;28;20030;-96
2023/08/24 09:32:08;;;;;;;4.40;2.00;;;;;;;34.09;33.83;99637.56;5042196;28;20030;-95
2023/08/24 09:34:36;;;;;;;4.32;2.70;;;;;;;34.23;33.62;99633.25;5042585;28;20047;-93
2023/08/24 09:37:07;;;;;;;2.50;1.88;;;;;;;34.15;34.97;99589.50;5020046;28;20466;-96
2023/08/24 09:39:33;;;;;;;2.60;1.77;;;;;;;34.76;33.47;99623.44;4999097;28;20053;-93
2023/08/24 09:42:03;;;;;;;2.97;2.13;;;;;;;34.88;33.51;99591.00;5014494;28;20403;-93
2023/08/24 09:44:29;;;;;;;3.50;2.30;;;;;;;34.74;32.54;99592.59;5016625;28;20045;-92
2023/08/24 09:46:55;;;;;;;3.42;1.77;;;;;;;35.10;32.21;99592.00;4997513;28;20029;-95
2023/08/24 09:49:21;;;;;;;6.47;2.58;;;;;;;35.10;31.55;99600.22;5014705;28;20122;-94
2023/08/24 09:51:48;;;;;;;4.32;2.33;;;;;;;35.24;31.54;99609.50;5031949;28;20038;-91
2023/08/24 09:54:16;;;;;;;2.80;1.73;;;;;;;35.60;30.84;99605.25;5013157;28;20037;-90
2023/08/24 09:56:43;;;;;;;3.25;1.88;;;;;;;35.39;31.86;99598.63;5030663;28;20044;-92
2023/08/24 09:59:19;;;;;;;3.85;2.22;;;;;;;35.46;30.64;99588.59;5030771;28;20128;-93
2023/08/24 10:01:50;;;;;;;4.78;2.80;;;;;;;35.59;31.28;99589.81;5012565;28;20108;-89
2023/08/24 10:04:29;;;;;;;2.10;1.55;;;;;;;35.41;30.86;99576.50;5014216;28;20029;-93
2023/08/24 10:07:15;;;;;;;19.45;2.60;;;;;;;35.38;31.45;99580.47;4998119;28;20128;-96
2023/08/24 10:09:52;;;;;;;3.28;1.70;;;;;;;35.72;31.37;99578.22;5038976;28;20112;-95
2023/08/24 10:12:26;;;;;;;2.47;1.58;;;;;;;36.05;31.53;99599.78;5010981;28;20046;-94
2023/08/24 10:15:06;;;;;;;3.47;2.40;;;;;;;35.19;32.08;99591.91;4999011;28;20037;-93
2023/08/24 10:17:36;;;;;;;6.03;2.42;;;;;;;35.09;33.52;99575.72;4998392;28;20037;-95
2023/08/24 10:20:08;;;;;;;3.72;1.83;;;;;;;35.54;32.66;99557.47;5013551;28;20021;-95
2023/08/24 10:22:41;;;;;;;4.57;2.92;;;;;;;35.98;31.28;99542.09;5018957;28;20041;-95
2023/08/24 10:25:10;;;;;;;2.92;2.17;;;;;;;35.45;31.91;99506.50;5024458;28;20032;-94
2023/08/24 10:27:43;;;;;;;4.88;2.47;;;;;;;35.45;32.48;99567.72;5039566;28;20109;-94
2023/08/24 10:30:12;;;;;;;2.72;1.73;;;;;;;34.85;32.37;99535.69;5020019;28;20120;-95
2023/08/24 10:32:41;;;;;;;4.22;2.55;;;;;;;34.67;33.41;99501.25;5037774;28;20119;-94
2023/08/24 10:35:10;;;;;;;3.33;2.05;;;;;;;34.62;32.45;99492.75;5016060;28;20112;-95
2023/08/24 10:37:36;;;;;;;4.78;2.53;;;;;;;34.89;32.38;99513.22;5033873;28;20061;-90
2023/08/24 10:40:35;;;;;;;3.30;2.50;;;;;;;35.28;32.33;99552.44;5031611;28;20116;-92
2023/08/24 10:43:05;;;;;;;7.88;2.30;;;;;;;35.27;33.00;99545.28;5032583;28;20057;-93
2023/08/24 10:45:59;;;;;;;5.05;2.05;;;;;;;35.01;34.05;99551.16;5013031;28;20415;-92
2023/08/24 10:51:48;;;;;;;4.10;2.00;;;;;;;34.70;34.33;99517.31;5031829;28;20103;-92
2023/08/24 10:54:30;;;;;;;3.28;2.22;;;;;;;34.78;34.54;99533.69;5031999;28;20029;-92
2023/08/24 10:56:58;;;;;;;3.17;2.28;;;;;;;34.41;34.64;99488.78;5012284;28;20116;-90
2023/08/24 10:59:34;;;;;;;3.42;1.77;;;;;;;34.30;33.98;99524.78;5031173;28;20526;-91
2023/08/24 11:02:26;;;;;;;4.18;2.67;;;;;;;34.65;33.51;99533.44;5032207;28;20029;-93
2023/08/24 11:05:05;;;;;;;3.83;2.60;;;;;;;34.64;34.01;99500.78;5030805;28;20056;-93
2023/08/24 11:07:47;;;;;;;7.45;2.92;;;;;;;34.43;34.21;99474.91;5014312;28;20511;-94
2023/08/24 11:10:13;;;;;;;4.22;2.88;;;;;;;34.49;34.21;99487.00;5013425;28;20063;-94
2023/08/24 11:13:09;;;;;;;2.72;2.03;;;;;;;34.56;33.02;99515.38;5032091;28;20084;-94
2023/08/24 11:15:56;;;;;;;4.70;2.63;;;;;;;34.32;33.31;99508.19;5031019;28;20029;-93
2023/08/24 11:18:27;;;;;;;3.33;2.38;;;;;;;34.15;32.80;99445.31;5031168;28;20103;-92
2023/08/24 11:20:55;;;;;;;4.10;2.30;;;;;;;34.37;32.29;99449.13;5030638;28;20033;-89
2023/08/24 11:23:23;;;;;;;3.92;2.35;;;;;;;34.67;33.03;99432.78;5031046;28;20030;-91
2023/08/24 11:25:54;;;;;;;5.82;2.33;;;;;;;34.97;31.50;99474.81;5031173;28;20028;-89
2023/08/24 11:28:21;;;;;;;5.40;3.38;;;;;;;34.85;32.35;99437.06;5029885;28;20029;-89
2023/08/24 11:30:57;;;;;;;4.25;2.53;;;;;;;35.15;31.48;99479.91;5032079;28;20094;-92
2023/08/24 11:33:42;;;;;;;5.10;2.67;;;;;;;35.15;32.24;99470.84;5013476;28;20055;-92
2023/08/24 11:36:08;;;;;;;3.85;2.15;;;;;;;35.36;31.96;99469.28;5031381;28;20479;-94
2023/08/24 11:38:38;;;;;;;3.40;2.05;;;;;;;35.10;30.94;99410.28;5031361;28;20041;-90
2023/08/24 11:44:07;;;;;;;2.65;1.88;;;;;;;35.01;30.38;99387.59;5034881;28;20055;-96
2023/08/24 11:46:32;;;;;;;3.60;1.90;;;;;;;35.23;31.60;99391.25;5019134;28;20109;-94
2023/08/24 11:49:03;;;;;;;3.25;2.15;;;;;;;35.39;31.55;99394.88;5017283;28;20115;-94
2023/08/24 11:51:29;;;;;;;3.53;2.00;;;;;;;35.67;29.56;99395.00;5014545;28;20038;-93
2023/08/24 11:53:55;;;;;;;4.10;1.92;;;;;;;35.62;32.01;99387.38;5022131;28;20033;-90
2023/08/24 11:56:43;;;;;;;3.85;1.83;;;;;;;36.01;31.20;99405.31;5036078;28;20036;-96
2023/08/24 11:59:14;;;;;;;3.92;2.33;;;;;;;35.80;28.74;99375.13;5028372;28;20403;-93
2023/08/24 12:01:47;;;;;;;4.55;2.65;;;;;;;36.04;29.12;99423.31;5013101;28;20029;-93
2023/08/24 12:04:12;;;;;;;4.20;2.03;;;;;;;35.72;28.26;99383.47;5030062;28;20037;-92
2023/08/24 12:06:39;;;;;;;2.90;1.77;;;;;;;35.55;27.52;99358.16;5030830;28;20034;-88
2023/08/24 12:09:06;;;;;;;2.63;1.58;;;;;;;36.02;27.48;99397.94;4996305;28;20404;-90
2023/08/24 12:11:39;;;;;;;2.95;1.98;;;;;;;35.85;27.60;99372.66;5031487;28;20543;-95
2023/08/24 12:14:47;;;;;;;1.85;1.52;;;;;;;36.40;26.91;99414.16;5016588;28;20034;-94
2023/08/24 12:18:03;;;;;;;4.47;2.38;;;;;;;36.44;28.44;99409.13;5036541;28;20029;-92
2023/08/24 12:21:00;;;;;;;10.43;2.70;;;;;;;36.65;27.34;99411.00;5034626;28;20491;-92
2023/08/24 12:24:05;;;;;;;4.22;2.10;;;;;;;36.71;27.69;99399.19;5034546;28;20399;-94
2023/08/24 12:26:31;;;;;;;3.65;2.20;;;;;;;36.86;27.20;99371.66;5016682;28;20037;-90
2023/08/24 12:29:02;;;;;;;3.67;2.58;;;;;;;37.19;26.85;99373.72;5033388;28;20030;-93
2023/08/24 12:31:29;;;;;;;7.68;2.92;;;;;;;36.96;26.88;99330.06;5033631;28;20037;-91
2023/08/24 12:34:17;;;;;;;4.57;1.77;;;;;;;37.35;26.16;99353.31;5028936;28;20036;-92
2023/08/24 12:36:43;;;;;;;2.67;1.77;;;;;;;37.29;25.43;99356.88;5015443;28;20517;-92
2023/08/24 12:39:12;;;;;;;5.40;2.45;;;;;;;37.11;25.47;99330.75;5016414;28;20018;-94
2023/08/24 12:41:38;;;;;;;3.72;2.40;;;;;;;37.18;24.62;99326.13;5018333;28;20048;-95
2023/08/24 12:44:05;;;;;;;2.90;2.08;;;;;;;37.26;23.99;99339.75;5036266;28;20049;-94
2023/08/24 12:46:34;;;;;;;2.35;1.67;;;;;;;37.07;24.27;99341.28;5016462;28;20037;-95
2023/08/24 12:49:03;;;;;;;8.88;3.00;;;;;;;37.37;24.47;99374.06;5029346;28;20060;-96
2023/08/24 12:51:28;;;;;;;4.07;2.38;;;;;;;37.38;24.31;99341.88;5017209;28;20537;-94
2023/08/24 12:53:54;;;;;;;3.60;2.10;;;;;;;37.18;23.95;99347.28;5033227;28;20116;-93
2023/08/24 12:56:19;;;;;;;3.28;2.63;;;;;;;37.39;25.15;99336.19;5016167;28;20419;-94
2023/08/24 12:58:47;;;;;;;3.60;2.38;;;;;;;37.37;23.96;99316.31;5015524;28;20037;-96
2023/08/24 13:01:14;;;;;;;4.40;2.65;;;;;;;37.47;24.21;99324.16;5016638;28;20065;-95
2023/08/24 13:03:39;;;;;;;2.78;1.92;;;;;;;37.56;24.99;99350.41;5018364;28;20029;-92
2023/08/24 13:06:08;;;;;;;6.07;1.67;;;;;;;37.20;24.09;99346.03;5031849;28;20466;-95
2023/08/24 13:08:33;;;;;;;5.68;2.30;;;;;;;37.23;24.16;99356.66;4997634;28;20065;-93
2023/08/24 13:10:59;;;;;;;4.70;2.65;;;;;;;37.21;23.82;99341.38;5014053;28;20057;-93
2023/08/24 13:13:27;;;;;;;7.80;5.05;;;;;;;37.22;23.55;99360.44;5022485;28;20904;-95
2023/08/24 13:15:52;;;;;;;7.47;4.78;;;;;;;37.02;23.24;99342.97;5008855;28;20038;-95
2023/08/24 13:18:18;;;;;;;3.15;2.17;;;;;;;36.80;24.31;99332.09;5013764;28;20039;-94
2023/08/24 13:20:44;;;;;;;2.20;1.35;;;;;;;36.88;24.23;99331.06;5017662;28;20033;-90
2023/08/24 13:23:09;;;;;;;3.08;1.60;;;;;;;36.73;24.57;99310.06;5031299;28;20056;-95
2023/08/24 13:25:35;;;;;;;2.50;1.55;;;;;;;37.12;24.42;99337.09;5029898;28;20084;-95
2023/08/24 13:28:00;;;;;;;2.67;1.73;;;;;;;37.34;24.57;99315.84;5014548;28;20041;-94
2023/08/24 13:30:27;;;;;;;2.63;1.77;;;;;;;37.49;23.66;99279.94;5034592;28;20484;-91
2023/08/24 13:32:52;;;;;;;2.00;1.58;;;;;;;37.61;24.23;99262.59;5032231;28;20037;-93
2023/08/24 13:35:18;;;;;;;4.97;2.00;;;;;;;38.12;23.97;99305.19;5014726;28;20025;-93
2023/08/24 13:37:43;;;;;;;3.90;1.70;;;;;;;37.86;23.66;99307.97;5013328;28;20419;-92
2023/08/24 13:40:09;;;;;;;2.20;1.83;;;;;;;37.89;24.79;99300.13;5012555;28;20041;-93
2023/08/24 13:42:35;;;;;;;2.42;1.58;;;;;;;38.18;23.36;99289.78;5013882;28;20033;-93
2023/08/24 13:45:00;;;;;;;3.42;1.73;;;;;;;38.29;23.39;99280.03;5026064;28;20033;-91
2023/08/24 13:47:25;;;;;;;3.42;2.17;;;;;;;37.84;24.33;99315.59;5025745;28;20032;-93
2023/08/24 13:49:52;;;;;;;7.18;2.00;;;;;;;37.52;24.30;99285.84;5012512;28;20496;-89
2023/08/24 13:52:19;;;;;;;2.13;1.42;;;;;;;37.38;24.35;99304.22;5030744;28;20038;-93
2023/08/24 13:54:47;;;;;;;2.45;1.95;;;;;;;37.82;23.53;99323.19;5013702;28;20506;-90
2023/08/24 13:57:13;;;;;;;3.90;1.70;;;;;;;37.39;24.60;99277.59;5027236;28;20025;-88